createdAt,value
2022-11-14T00:01:12.876Z,13.45
2022-11-14T00:03:42.071Z,12.05
2022-11-14T00:06:09.069Z,13.15
2022-11-14T00:08:36.217Z,12.35
2022-11-14T00:11:03.261Z,12.95
2022-11-14T00:13:29.805Z,13.25
2022-11-14T00:15:56.511Z,12.35
2022-11-14T00:18:23.696Z,14.93
2022-11-14T00:20:52.184Z,15.23
2022-11-14T00:23:19.920Z,13.35
2022-11-14T00:25:46.987Z,12.98
2022-11-14T00:28:13.536Z,13.70
2022-11-14T00:30:40.286Z,10.88
2022-11-14T00:33:06.810Z,12.80
2022-11-14T00:35:33.363Z,12.23
2022-11-14T00:37:59.873Z,11.88
2022-11-14T00:40:28.928Z,11.52
2022-11-14T00:42:55.436Z,14.38
2022-11-14T00:45:22.067Z,14.65
2022-11-14T00:47:48.709Z,13.35
2022-11-14T00:50:17.081Z,18.58
2022-11-14T00:52:46.101Z,14.60
2022-11-14T00:55:12.656Z,16.80
2022-11-14T00:57:39.231Z,13.40
2022-11-14T01:00:07.008Z,13.60
2022-11-14T01:02:33.813Z,16.40
2022-11-14T01:05:02.897Z,13.10
2022-11-14T01:07:29.550Z,13.73
2022-11-14T01:09:56.202Z,14.30
2022-11-14T01:12:22.720Z,13.73
2022-11-14T01:14:49.283Z,12.32
2022-11-14T01:17:15.866Z,13.07
2022-11-14T01:19:42.384Z,14.63
2022-11-14T01:22:09.301Z,13.50
2022-11-14T01:24:35.873Z,12.90
2022-11-14T01:27:02.564Z,14.18
2022-11-14T01:29:29.158Z,15.15
2022-11-14T01:31:56.103Z,14.85
2022-11-14T01:34:23.274Z,13.82
2022-11-14T01:36:49.807Z,15.25
2022-11-14T01:39:16.388Z,14.27
2022-11-14T01:41:42.925Z,14.57
2022-11-14T01:44:17.435Z,15.73
2022-11-14T01:46:50.426Z,14.40
2022-11-14T01:49:26.043Z,14.93
2022-11-14T01:52:03.542Z,14.80
2022-11-14T01:54:34.811Z,17.45
2022-11-14T01:57:03.077Z,18.38
2022-11-14T01:59:34.567Z,18.02
2022-11-14T02:02:07.086Z,17.55
2022-11-14T02:04:39.723Z,16.67
2022-11-14T02:07:07.408Z,17.10
2022-11-14T02:09:41.058Z,18.27
2022-11-14T02:12:10.159Z,15.00
2022-11-14T02:14:38.029Z,15.82
2022-11-14T02:17:28.582Z,14.48
2022-11-14T02:20:05.770Z,19.40
2022-11-14T02:22:32.821Z,14.73
2022-11-14T02:24:59.375Z,14.95
2022-11-14T02:27:26.445Z,14.20
2022-11-14T02:29:52.961Z,15.57
2022-11-14T02:32:19.592Z,15.32
2022-11-14T02:34:46.106Z,14.95
2022-11-14T02:37:12.625Z,15.98
2022-11-14T02:39:39.345Z,14.50
2022-11-14T02:42:05.956Z,14.50
2022-11-14T02:44:32.611Z,16.98
2022-11-14T02:47:02.152Z,14.50
2022-11-14T02:49:28.674Z,15.00
2022-11-14T02:51:55.151Z,17.30
2022-11-14T02:54:21.698Z,14.40
2022-11-14T02:56:48.215Z,15.63
2022-11-14T02:59:14.716Z,18.58
2022-11-14T03:01:43.574Z,13.48
2022-11-14T03:04:10.112Z,14.93
2022-11-14T03:06:36.853Z,15.25
2022-11-14T03:09:03.623Z,14.73
2022-11-14T03:11:31.210Z,14.10
2022-11-14T03:13:59.568Z,13.38
2022-11-14T03:16:26.271Z,14.30
2022-11-14T03:18:53.317Z,15.57
2022-11-14T03:21:22.015Z,14.52
2022-11-14T03:23:48.811Z,16.48
2022-11-14T03:26:16.429Z,14.40
2022-11-14T03:28:43.149Z,15.77
2022-11-14T03:31:13.322Z,14.32
2022-11-14T03:33:40.268Z,14.13
2022-11-14T03:36:07.775Z,14.32
2022-11-14T03:38:35.709Z,16.02
2022-11-14T03:41:02.259Z,15.45
2022-11-14T03:43:34.917Z,13.20
2022-11-14T03:46:02.747Z,14.52
2022-11-14T03:48:29.957Z,15.07
2022-11-14T03:50:57.160Z,15.27
2022-11-14T03:53:24.142Z,14.07
2022-11-14T03:55:53.150Z,15.07
2022-11-14T03:58:19.801Z,16.05
2022-11-14T04:00:46.546Z,14.90
2022-11-14T04:03:13.277Z,17.38
2022-11-14T04:05:39.971Z,16.10
2022-11-14T04:08:07.249Z,14.63
2022-11-14T04:10:33.932Z,14.43
2022-11-14T04:13:00.491Z,14.15
2022-11-14T04:15:27.009Z,13.15
2022-11-14T04:17:56.014Z,15.20
2022-11-14T04:20:22.545Z,14.88
2022-11-14T04:22:51.280Z,14.68
2022-11-14T04:25:17.939Z,13.38
2022-11-14T04:27:44.477Z,12.57
2022-11-14T04:30:11.612Z,16.15
2022-11-14T04:32:38.164Z,12.70
2022-11-14T04:35:05.102Z,15.00
2022-11-14T04:37:31.959Z,13.05
2022-11-14T04:40:01.045Z,14.98
2022-11-14T04:42:28.391Z,13.52
2022-11-14T04:44:55.385Z,14.60
2022-11-14T04:47:22.140Z,13.88
2022-11-14T04:49:48.887Z,17.00
2022-11-14T04:52:16.013Z,13.70
2022-11-14T04:54:42.743Z,11.85
2022-11-14T04:57:09.644Z,14.23
2022-11-14T04:59:36.475Z,12.88
2022-11-14T05:02:05.681Z,14.23
2022-11-14T05:04:32.565Z,18.70
2022-11-14T05:06:59.430Z,22.23
2022-11-14T05:09:26.217Z,25.25
2022-11-14T05:11:52.905Z,20.88
2022-11-14T05:14:19.610Z,18.40
2022-11-14T05:16:46.454Z,19.10
2022-11-14T05:19:13.207Z,20.95
2022-11-14T05:21:42.065Z,16.95
2022-11-14T05:24:09.098Z,18.98
2022-11-14T05:26:35.761Z,17.23
2022-11-14T05:29:02.369Z,18.83
2022-11-14T05:31:29.195Z,17.40
2022-11-14T05:33:58.381Z,20.13
2022-11-14T05:36:25.117Z,17.15
2022-11-14T05:38:52.235Z,18.52
2022-11-14T05:41:22.376Z,16.65
2022-11-14T05:43:49.029Z,19.77
2022-11-14T05:46:16.841Z,16.40
2022-11-14T05:48:43.857Z,18.17
2022-11-14T05:51:15.176Z,16.30
2022-11-14T05:53:44.091Z,15.20
2022-11-14T05:56:13.028Z,17.13
2022-11-14T05:58:40.182Z,19.25
2022-11-14T06:01:08.465Z,22.17
2022-11-14T06:03:37.295Z,21.90
2022-11-14T06:06:09.285Z,18.20
2022-11-14T06:08:36.760Z,15.63
2022-11-14T06:11:05.567Z,19.17
2022-11-14T06:13:32.780Z,21.10
2022-11-14T06:16:05.065Z,17.77
2022-11-14T06:18:33.069Z,18.90
2022-11-14T06:21:04.206Z,21.00
2022-11-14T06:23:30.776Z,19.60
2022-11-14T06:26:02.247Z,19.77
2022-11-14T06:28:29.848Z,21.40
2022-11-14T06:31:01.218Z,21.40
2022-11-14T06:33:29.547Z,26.65
2022-11-14T06:36:04.915Z,26.90
2022-11-14T06:38:32.932Z,31.77
2022-11-14T06:41:13.477Z,30.48
2022-11-14T06:43:45.357Z,28.80
2022-11-14T06:46:14.986Z,29.92
2022-11-14T06:48:43.193Z,30.40
2022-11-14T06:51:14.024Z,32.03
2022-11-14T06:53:44.917Z,25.98
2022-11-14T06:56:13.548Z,27.73
2022-11-14T06:58:44.469Z,21.30
2022-11-14T07:01:14.163Z,33.97
2022-11-14T07:03:44.126Z,33.92
2022-11-14T07:06:13.365Z,28.80
2022-11-14T07:08:40.253Z,30.40
2022-11-14T07:11:09.603Z,26.00
2022-11-14T07:13:37.832Z,23.17
2022-11-14T07:16:05.319Z,28.10
2022-11-14T07:18:33.914Z,25.92
2022-11-14T07:21:03.559Z,22.73
2022-11-14T07:23:32.124Z,25.77
2022-11-14T07:26:09.706Z,23.05
2022-11-14T07:28:37.985Z,24.20
2022-11-14T07:31:06.094Z,24.58
2022-11-14T07:33:33.712Z,25.48
2022-11-14T07:36:00.261Z,23.95
2022-11-14T07:38:27.327Z,22.65
2022-11-14T07:41:00.079Z,26.80
2022-11-14T07:43:27.539Z,27.60
2022-11-14T07:45:55.536Z,30.40
2022-11-14T07:48:23.824Z,28.50
2022-11-14T07:50:50.961Z,33.05
2022-11-14T07:53:18.095Z,33.25
2022-11-14T07:55:44.918Z,34.55
2022-11-14T07:58:14.563Z,32.38
2022-11-14T08:00:41.466Z,29.20
2022-11-14T08:03:10.818Z,29.80
2022-11-14T08:05:37.576Z,29.17
2022-11-14T08:08:04.705Z,29.75
2022-11-14T08:10:33.752Z,29.38
2022-11-14T08:13:30.142Z,25.92
2022-11-14T08:15:50.675Z,23.70
2022-11-14T08:18:17.645Z,25.90
2022-11-14T08:20:44.850Z,32.38
2022-11-14T08:23:12.479Z,26.77
2022-11-14T08:25:39.323Z,25.27
2022-11-14T08:28:08.291Z,22.17
2022-11-14T08:30:35.395Z,24.65
2022-11-14T08:33:03.866Z,16.55
2022-11-14T08:35:31.004Z,12.85
2022-11-14T08:37:57.624Z,15.52
2022-11-14T08:40:24.464Z,14.73
2022-11-14T08:42:51.392Z,12.90
2022-11-14T08:45:18.090Z,14.25
2022-11-14T08:47:51.001Z,12.80
2022-11-14T08:50:17.848Z,13.53
2022-11-14T08:52:50.313Z,11.80
2022-11-14T08:55:17.271Z,16.15
2022-11-14T08:57:49.046Z,16.02
2022-11-14T09:00:16.598Z,10.90
2022-11-14T09:02:43.264Z,12.18
2022-11-14T09:05:11.210Z,13.10
2022-11-14T09:07:38.075Z,11.98
2022-11-14T09:10:05.321Z,14.25
2022-11-14T09:12:35.260Z,16.17
2022-11-14T09:15:04.662Z,12.43
2022-11-14T09:17:31.275Z,12.35
2022-11-14T09:19:57.897Z,11.48
2022-11-14T09:22:24.675Z,12.70
2022-11-14T09:24:52.199Z,14.15
2022-11-14T09:27:19.126Z,12.32
2022-11-14T09:29:45.997Z,11.98
2022-11-14T09:32:12.549Z,10.13
2022-11-14T09:34:43.091Z,10.68
2022-11-14T09:37:10.142Z,12.00
2022-11-14T09:39:40.562Z,13.60
2022-11-14T09:42:07.391Z,10.43
2022-11-14T09:44:49.547Z,8.32
2022-11-14T09:47:27.551Z,10.43
2022-11-14T09:50:02.336Z,9.63
2022-11-14T09:52:46.454Z,12.02
2022-11-14T09:58:05.382Z,9.70
2022-11-14T10:00:58.441Z,9.10
2022-11-14T10:04:07.026Z,8.57
2022-11-14T10:06:50.379Z,11.32
2022-11-14T10:09:17.090Z,11.48
2022-11-14T10:11:59.604Z,12.02
2022-11-14T10:14:38.533Z,14.73
2022-11-14T10:17:37.581Z,10.13
2022-11-14T10:20:18.669Z,10.63
2022-11-14T10:23:16.365Z,10.35
2022-11-14T10:25:54.808Z,11.15
2022-11-14T10:28:43.218Z,11.00
2022-11-14T10:31:38.188Z,9.98
2022-11-14T10:34:51.323Z,11.25
2022-11-14T10:37:37.759Z,14.07
2022-11-14T10:40:22.279Z,9.68
2022-11-14T10:43:00.617Z,11.65
2022-11-14T10:45:35.110Z,10.43
2022-11-14T10:48:09.219Z,12.15
2022-11-14T10:51:06.520Z,10.80
2022-11-14T10:53:57.590Z,12.27
2022-11-14T10:56:24.455Z,15.07
2022-11-14T10:58:51.230Z,12.40
2022-11-14T11:01:42.441Z,11.30
2022-11-14T11:04:13.632Z,12.07
2022-11-14T11:06:40.906Z,12.07
2022-11-14T11:09:34.362Z,10.73
2022-11-14T11:12:06.851Z,13.23
2022-11-14T11:14:34.762Z,11.30
2022-11-14T11:17:11.544Z,13.95
2022-11-14T11:19:42.616Z,13.95
2022-11-14T11:22:30.162Z,10.98
2022-11-14T11:24:57.005Z,11.68
2022-11-14T11:27:26.951Z,15.30
2022-11-14T11:30:05.181Z,10.43
2022-11-14T11:32:32.018Z,10.75
2022-11-14T11:35:01.537Z,12.35
2022-11-14T11:37:35.967Z,12.40
2022-11-14T11:40:06.343Z,11.60
2022-11-14T11:43:31.564Z,10.73
2022-11-14T11:45:31.700Z,11.60
2022-11-14T11:48:05.593Z,10.00
2022-11-14T11:53:11.321Z,13.07
2022-11-14T11:55:44.119Z,13.70
2022-11-14T11:58:22.739Z,13.82
2022-11-14T12:00:55.210Z,13.48
2022-11-14T12:03:24.749Z,16.88
2022-11-14T12:06:20.757Z,12.38
2022-11-14T12:08:56.104Z,13.30
2022-11-14T12:11:26.405Z,13.48
2022-11-14T12:14:01.649Z,16.17
2022-11-14T12:16:59.257Z,12.40
2022-11-14T12:19:53.846Z,28.63
2022-11-14T12:22:42.824Z,16.55
2022-11-14T12:25:21.470Z,14.93
2022-11-14T12:28:09.019Z,15.35
2022-11-14T12:30:37.298Z,11.82
2022-11-14T12:33:35.888Z,15.68
2022-11-14T12:36:08.656Z,10.10
2022-11-14T12:38:46.685Z,10.50
2022-11-14T12:41:24.485Z,11.68
2022-11-14T12:43:53.324Z,11.15
2022-11-14T12:46:22.588Z,12.32
2022-11-14T12:48:49.023Z,10.85
2022-11-14T12:51:24.981Z,8.02
2022-11-14T12:53:52.840Z,11.50
2022-11-14T12:56:25.365Z,8.32
2022-11-14T12:59:10.234Z,8.77
2022-11-14T13:01:50.240Z,8.25
2022-11-14T13:04:16.804Z,9.07
2022-11-14T13:07:02.084Z,8.27
2022-11-14T13:09:36.090Z,9.60
2022-11-14T13:12:53.070Z,10.05
2022-11-14T13:15:38.031Z,11.30
2022-11-14T13:18:39.979Z,8.65
2022-11-14T13:21:45.891Z,8.93
2022-11-14T13:24:19.790Z,10.15
2022-11-14T13:26:52.671Z,7.07
2022-11-14T13:29:40.918Z,8.55
2022-11-14T13:32:12.159Z,8.85
2022-11-14T13:34:45.156Z,7.90
2022-11-14T13:37:35.036Z,9.90
2022-11-14T13:40:18.683Z,8.45
2022-11-14T13:43:03.763Z,8.90
2022-11-14T13:45:39.317Z,8.18
2022-11-14T13:48:47.770Z,12.95
2022-11-14T13:54:16.348Z,8.30
2022-11-14T13:57:00.502Z,8.07
2022-11-14T13:59:57.022Z,7.30
2022-11-14T14:02:26.574Z,10.85
2022-11-14T14:04:56.095Z,7.05
2022-11-14T14:07:37.961Z,7.93
2022-11-14T14:10:26.223Z,7.25
2022-11-14T14:13:31.830Z,7.80
2022-11-14T14:16:07.533Z,8.60
2022-11-14T14:18:54.503Z,7.85
2022-11-14T14:21:44.358Z,6.97
2022-11-14T14:24:17.130Z,9.25
2022-11-14T14:27:21.598Z,13.10
2022-11-14T14:30:02.614Z,9.98
2022-11-14T14:32:31.530Z,11.18
2022-11-14T14:35:00.493Z,9.50
2022-11-14T14:37:29.283Z,12.50
2022-11-14T14:40:01.077Z,10.52
2022-11-14T14:42:36.536Z,11.90
2022-11-14T14:45:04.533Z,9.43
2022-11-14T14:47:44.736Z,10.38
2022-11-14T14:50:27.115Z,11.32
2022-11-14T14:53:02.014Z,12.77
2022-11-14T14:55:32.450Z,11.48
2022-11-14T14:58:26.271Z,11.18
2022-11-14T15:01:01.626Z,11.27
2022-11-14T15:03:37.121Z,12.07
2022-11-14T15:06:22.349Z,10.43
2022-11-14T15:08:49.643Z,12.00
2022-11-14T15:11:16.506Z,17.15
2022-11-14T15:13:43.759Z,12.88
2022-11-14T15:16:14.071Z,15.65
2022-11-14T15:18:40.915Z,20.80
2022-11-14T15:21:10.656Z,16.27
2022-11-14T15:23:39.109Z,16.40
2022-11-14T15:26:18.022Z,18.83
2022-11-14T15:28:47.809Z,22.70
2022-11-14T15:31:22.595Z,24.05
2022-11-14T15:34:04.825Z,22.38
2022-11-14T15:36:31.674Z,23.23
2022-11-14T15:39:03.648Z,17.88
2022-11-14T15:41:32.233Z,12.15
2022-11-14T15:44:03.049Z,15.50
2022-11-14T15:46:40.711Z,39.15
2022-11-14T15:49:08.876Z,28.30
2022-11-14T15:51:50.752Z,21.73
2022-11-14T15:54:34.662Z,16.63
2022-11-14T15:57:15.087Z,21.50
2022-11-14T15:59:41.843Z,22.98
2022-11-14T16:02:18.271Z,18.35
2022-11-14T16:04:47.895Z,16.25
2022-11-14T16:07:18.134Z,19.42
2022-11-14T16:09:45.194Z,15.85
2022-11-14T16:12:12.019Z,13.82
2022-11-14T16:14:41.164Z,13.88
2022-11-14T16:17:14.109Z,15.80
2022-11-14T16:19:46.066Z,18.03
2022-11-14T16:22:15.942Z,16.35
2022-11-14T16:24:42.390Z,18.08
2022-11-14T16:27:11.719Z,17.65
2022-11-14T16:29:40.696Z,17.45
2022-11-14T16:32:10.396Z,18.90
2022-11-14T16:34:36.846Z,30.23
2022-11-14T16:37:03.529Z,44.25
2022-11-14T16:39:32.992Z,38.15
2022-11-14T16:42:02.450Z,25.60
2022-11-14T16:44:29.054Z,28.27
2022-11-14T16:46:55.537Z,33.28
2022-11-14T16:49:22.109Z,30.25
2022-11-14T16:51:50.682Z,30.38
2022-11-14T16:54:20.782Z,24.45
2022-11-14T16:56:48.028Z,22.65
2022-11-14T16:59:14.764Z,26.55
2022-11-14T17:01:41.612Z,24.27
2022-11-14T17:04:08.388Z,25.08
2022-11-14T17:06:37.287Z,18.17
2022-11-14T17:09:03.969Z,25.67
2022-11-14T17:11:33.078Z,32.33
2022-11-14T17:13:59.618Z,37.63
2022-11-14T17:16:26.167Z,29.35
2022-11-14T17:18:56.575Z,26.35
2022-11-14T17:21:24.255Z,18.90
2022-11-14T17:23:54.647Z,19.95
2022-11-14T17:26:21.413Z,24.60
2022-11-14T17:28:47.979Z,22.30
2022-11-14T17:31:15.917Z,34.28
2022-11-14T17:33:42.369Z,31.33
2022-11-14T17:36:10.400Z,30.92
2022-11-14T17:38:38.219Z,23.85
2022-11-14T17:41:08.158Z,23.00
2022-11-14T17:43:39.547Z,18.75
2022-11-14T17:46:12.634Z,31.75
2022-11-14T17:48:42.709Z,24.10
2022-11-14T17:51:12.801Z,19.55
2022-11-14T17:53:40.056Z,17.80
2022-11-14T17:56:09.913Z,17.98
2022-11-14T17:58:39.237Z,14.95
2022-11-14T18:01:14.472Z,14.65
2022-11-14T18:03:41.642Z,25.70
2022-11-14T18:06:10.464Z,28.73
2022-11-14T18:08:37.727Z,29.27
2022-11-14T18:11:06.107Z,25.10
2022-11-14T18:13:33.297Z,31.13
2022-11-14T18:16:19.947Z,26.13
2022-11-14T18:18:46.472Z,32.25
2022-11-14T18:21:18.965Z,28.80
2022-11-14T18:23:54.552Z,25.67
2022-11-14T18:26:27.133Z,28.20
2022-11-14T18:28:58.813Z,25.40
2022-11-14T18:31:28.138Z,19.23
2022-11-14T18:33:57.441Z,20.17
2022-11-14T18:36:24.262Z,26.67
2022-11-14T18:38:50.776Z,27.83
2022-11-14T18:41:19.384Z,35.55
2022-11-14T18:43:46.118Z,71.78
2022-11-14T18:46:21.714Z,84.88
2022-11-14T18:48:52.571Z,118.97
2022-11-14T18:51:22.037Z,105.97
2022-11-14T18:53:48.777Z,89.65
2022-11-14T18:56:18.029Z,108.55
2022-11-14T18:58:45.397Z,94.32
2022-11-14T19:01:13.964Z,76.18
2022-11-14T19:03:40.539Z,72.60
2022-11-14T19:06:08.806Z,44.47
2022-11-14T19:08:35.337Z,40.00
2022-11-14T19:11:05.370Z,26.77
2022-11-14T19:13:32.083Z,26.17
2022-11-14T19:16:05.590Z,35.03
2022-11-14T19:18:35.161Z,28.08
2022-11-14T19:21:06.084Z,29.67
2022-11-14T19:23:33.902Z,27.95
2022-11-14T19:26:01.727Z,29.70
2022-11-14T19:28:32.309Z,28.20
2022-11-14T19:31:05.967Z,29.45
2022-11-14T19:33:35.232Z,33.45
2022-11-14T19:36:06.792Z,32.03
2022-11-14T19:38:33.512Z,31.48
2022-11-14T19:41:09.334Z,32.53
2022-11-14T19:43:43.336Z,32.47
2022-11-14T19:46:10.548Z,29.50
2022-11-14T19:48:37.815Z,35.75
2022-11-14T19:51:09.698Z,37.00
2022-11-14T19:53:37.675Z,37.42
2022-11-14T19:56:09.769Z,40.13
2022-11-14T19:58:37.879Z,41.40
2022-11-14T20:01:06.786Z,38.50
2022-11-14T20:03:33.716Z,34.38
2022-11-14T20:06:00.641Z,35.10
2022-11-14T20:08:27.282Z,40.40
2022-11-14T20:11:04.922Z,34.67
2022-11-14T20:13:38.002Z,36.47
2022-11-14T20:16:12.631Z,38.80
2022-11-14T20:18:40.486Z,35.40
2022-11-14T20:21:10.667Z,36.38
2022-11-14T20:23:37.605Z,32.58
2022-11-14T20:26:10.967Z,37.25
2022-11-14T20:31:07.416Z,34.88
2022-11-14T20:33:39.070Z,40.45
2022-11-14T20:36:11.507Z,34.97
2022-11-14T20:38:38.104Z,40.97
2022-11-14T20:41:05.333Z,35.70
2022-11-14T20:43:32.323Z,31.77
2022-11-14T20:46:06.130Z,28.02
2022-11-14T20:48:37.495Z,30.92
2022-11-14T20:51:10.460Z,27.30
2022-11-14T20:53:37.134Z,30.45
2022-11-14T20:56:06.698Z,27.55
2022-11-14T20:58:33.740Z,30.10
2022-11-14T21:01:00.347Z,33.47
2022-11-14T21:03:30.019Z,29.65
2022-11-14T21:06:00.171Z,30.75
2022-11-14T21:08:26.792Z,33.13
2022-11-14T21:11:02.033Z,30.55
2022-11-14T21:13:47.292Z,32.20
2022-11-14T21:16:19.120Z,38.75
2022-11-14T21:18:48.346Z,29.38
2022-11-14T21:21:19.821Z,33.63
2022-11-14T21:23:47.317Z,34.60
2022-11-14T21:26:13.695Z,33.30
2022-11-14T21:28:43.026Z,39.03
2022-11-14T21:31:18.546Z,34.20
2022-11-14T21:33:45.929Z,31.98
2022-11-14T21:36:43.095Z,32.83
2022-11-14T21:39:03.096Z,29.40
2022-11-14T21:41:31.046Z,32.83
2022-11-14T21:43:59.675Z,39.67
2022-11-14T21:46:27.164Z,41.58
2022-11-14T21:48:55.502Z,39.38
2022-11-14T21:51:24.514Z,34.95
2022-11-14T21:53:54.539Z,32.13
2022-11-14T21:56:22.520Z,39.33
2022-11-14T21:58:50.576Z,45.20
2022-11-14T22:01:40.416Z,34.03
2022-11-14T22:04:12.962Z,30.15
2022-11-14T22:06:41.380Z,30.55
2022-11-14T22:09:08.672Z,32.50
2022-11-14T22:11:37.963Z,32.22
2022-11-14T22:14:04.578Z,36.47
2022-11-14T22:16:31.569Z,32.85
2022-11-14T22:19:04.524Z,36.78
2022-11-14T22:21:31.635Z,28.67
2022-11-14T22:23:58.200Z,28.70
2022-11-14T22:26:24.604Z,41.53
2022-11-14T22:28:51.057Z,44.55
2022-11-14T22:31:22.960Z,42.92
2022-11-14T22:33:57.907Z,50.65
2022-11-14T22:36:26.319Z,45.45
2022-11-14T22:38:54.706Z,46.70
2022-11-14T22:41:30.690Z,42.63
2022-11-14T22:44:01.777Z,37.92
2022-11-14T22:46:28.999Z,34.20
2022-11-14T22:48:55.987Z,33.20
2022-11-14T22:51:26.893Z,29.95
2022-11-14T22:53:55.174Z,32.85
2022-11-14T22:56:24.331Z,32.17
2022-11-14T22:58:51.443Z,30.13
2022-11-14T23:01:20.886Z,32.47
2022-11-14T23:03:48.331Z,29.77
2022-11-14T23:06:17.644Z,29.20
2022-11-14T23:08:44.381Z,29.92
2022-11-14T23:11:14.418Z,25.38
2022-11-14T23:13:43.550Z,21.48
2022-11-14T23:16:18.657Z,20.80
2022-11-14T23:18:48.199Z,18.30
2022-11-14T23:21:20.028Z,16.90
2022-11-14T23:23:46.832Z,20.85
2022-11-14T23:26:20.172Z,18.05
2022-11-14T23:28:46.655Z,19.50
2022-11-14T23:31:19.440Z,18.33
2022-11-14T23:33:47.307Z,24.27
2022-11-14T23:36:16.486Z,20.85
2022-11-14T23:38:42.946Z,18.38
2022-11-14T23:41:16.239Z,16.90
2022-11-14T23:43:42.793Z,21.30
2022-11-14T23:46:11.766Z,23.92
2022-11-14T23:48:38.195Z,26.58
2022-11-14T23:51:04.721Z,27.70
2022-11-14T23:53:31.535Z,26.10
2022-11-14T23:56:01.963Z,23.27
2022-11-14T23:58:29.920Z,20.60
